sensor_id;sensor_type;location;lat;lon;timestamp;temperature;humidity
9225;DHT22;4647;48.072;11.616;2022-09-09T00:01:49;13.60;99.90
9225;DHT22;4647;48.072;11.616;2022-09-09T00:04:26;13.50;99.90
9225;DHT22;4647;48.072;11.616;2022-09-09T00:07:01;13.60;99.90
9225;DHT22;4647;48.072;11.616;2022-09-09T00:09:32;13.50;99.90
9225;DHT22;4647;48.072;11.616;2022-09-09T00:12:10;13.60;99.90
9225;DHT22;4647;48.072;11.616;2022-09-09T00:14:43;13.60;99.90
9225;DHT22;4647;48.072;11.616;2022-09-09T00:17:17;13.80;99.90
9225;DHT22;4647;48.072;11.616;2022-09-09T00:19:54;13.80;99.90
9225;DHT22;4647;48.072;11.616;2022-09-09T00:22:23;13.90;99.90
9225;DHT22;4647;48.072;11.616;2022-09-09T00:24:53;13.90;99.90
9225;DHT22;4647;48.072;11.616;2022-09-09T00:27:25;14.10;99.90
9225;DHT22;4647;48.072;11.616;2022-09-09T00:29:58;14.10;99.90
9225;DHT22;4647;48.072;11.616;2022-09-09T00:32:30;14.00;99.90
9225;DHT22;4647;48.072;11.616;2022-09-09T00:35:04;14.00;99.90
9225;DHT22;4647;48.072;11.616;2022-09-09T00:37:38;14.10;99.90
9225;DHT22;4647;48.072;11.616;2022-09-09T00:40:16;14.30;99.90
9225;DHT22;4647;48.072;11.616;2022-09-09T00:42:49;14.50;99.90
9225;DHT22;4647;48.072;11.616;2022-09-09T00:45:37;14.60;99.90
9225;DHT22;4647;48.072;11.616;2022-09-09T00:48:10;14.70;99.90
9225;DHT22;4647;48.072;11.616;2022-09-09T00:50:45;14.60;99.90
9225;DHT22;4647;48.072;11.616;2022-09-09T00:53:30;14.60;99.90
9225;DHT22;4647;48.072;11.616;2022-09-09T00:56:09;14.50;99.90
9225;DHT22;4647;48.072;11.616;2022-09-09T00:58:38;14.40;99.90
9225;DHT22;4647;48.072;11.616;2022-09-09T01:01:08;14.50;99.90
9225;DHT22;4647;48.072;11.616;2022-09-09T01:03:39;14.60;99.90
9225;DHT22;4647;48.072;11.616;2022-09-09T01:06:16;14.60;99.90
9225;DHT22;4647;48.072;11.616;2022-09-09T01:09:02;14.50;99.90
9225;DHT22;4647;48.072;11.616;2022-09-09T01:11:36;14.40;99.90
9225;DHT22;4647;48.072;11.616;2022-09-09T01:14:24;14.40;99.90
9225;DHT22;4647;48.072;11.616;2022-09-09T01:16:59;14.40;99.90
9225;DHT22;4647;48.072;11.616;2022-09-09T01:19:40;14.50;99.90
9225;DHT22;4647;48.072;11.616;2022-09-09T01:22:15;14.50;99.90
9225;DHT22;4647;48.072;11.616;2022-09-09T01:25:07;14.40;99.90
9225;DHT22;4647;48.072;11.616;2022-09-09T01:27:40;14.40;99.90
9225;DHT22;4647;48.072;11.616;2022-09-09T01:30:10;14.40;99.90
9225;DHT22;4647;48.072;11.616;2022-09-09T01:32:41;14.40;99.90
9225;DHT22;4647;48.072;11.616;2022-09-09T01:35:11;14.50;99.90
9225;DHT22;4647;48.072;11.616;2022-09-09T01:37:39;14.50;99.90
9225;DHT22;4647;48.072;11.616;2022-09-09T01:40:07;14.50;99.90
9225;DHT22;4647;48.072;11.616;2022-09-09T01:42:34;14.50;99.90
9225;DHT22;4647;48.072;11.616;2022-09-09T01:45:02;14.40;99.90
9225;DHT22;4647;48.072;11.616;2022-09-09T01:47:30;14.40;99.90
9225;DHT22;4647;48.072;11.616;2022-09-09T01:49:57;14.40;99.90
9225;DHT22;4647;48.072;11.616;2022-09-09T01:52:25;14.40;99.90
9225;DHT22;4647;48.072;11.616;2022-09-09T01:54:52;14.40;99.90
9225;DHT22;4647;48.072;11.616;2022-09-09T01:57:23;14.40;99.90
9225;DHT22;4647;48.072;11.616;2022-09-09T02:00:04;14.40;99.90
9225;DHT22;4647;48.072;11.616;2022-09-09T02:02:36;14.40;99.90
9225;DHT22;4647;48.072;11.616;2022-09-09T02:05:12;14.40;99.90
9225;DHT22;4647;48.072;11.616;2022-09-09T02:07:46;14.40;99.90
9225;DHT22;4647;48.072;11.616;2022-09-09T02:10:18;14.40;99.90
9225;DHT22;4647;48.072;11.616;2022-09-09T02:12:49;14.40;99.90
9225;DHT22;4647;48.072;11.616;2022-09-09T02:15:23;14.30;99.90
9225;DHT22;4647;48.072;11.616;2022-09-09T02:17:52;14.20;99.90
9225;DHT22;4647;48.072;11.616;2022-09-09T02:20:20;14.30;99.90
9225;DHT22;4647;48.072;11.616;2022-09-09T02:22:49;14.30;99.90
9225;DHT22;4647;48.072;11.616;2022-09-09T02:25:20;14.40;99.90
9225;DHT22;4647;48.072;11.616;2022-09-09T02:27:50;14.40;99.90
9225;DHT22;4647;48.072;11.616;2022-09-09T02:30:19;14.30;99.90
9225;DHT22;4647;48.072;11.616;2022-09-09T02:32:47;14.40;99.90
9225;DHT22;4647;48.072;11.616;2022-09-09T02:35:18;14.30;99.90
9225;DHT22;4647;48.072;11.616;2022-09-09T02:37:47;14.20;99.90
9225;DHT22;4647;48.072;11.616;2022-09-09T02:40:15;14.20;99.90
9225;DHT22;4647;48.072;11.616;2022-09-09T02:42:44;14.20;99.90
9225;DHT22;4647;48.072;11.616;2022-09-09T02:45:13;14.10;99.90
9225;DHT22;4647;48.072;11.616;2022-09-09T02:47:49;14.10;99.90
9225;DHT22;4647;48.072;11.616;2022-09-09T02:50:21;14.20;99.90
9225;DHT22;4647;48.072;11.616;2022-09-09T02:53:01;14.20;99.90
9225;DHT22;4647;48.072;11.616;2022-09-09T02:55:38;14.10;99.90
9225;DHT22;4647;48.072;11.616;2022-09-09T02:58:08;14.20;99.90
9225;DHT22;4647;48.072;11.616;2022-09-09T03:00:38;14.20;99.90
9225;DHT22;4647;48.072;11.616;2022-09-09T03:03:07;14.10;99.90
9225;DHT22;4647;48.072;11.616;2022-09-09T03:05:35;14.10;99.90
9225;DHT22;4647;48.072;11.616;2022-09-09T03:08:03;14.20;99.90
9225;DHT22;4647;48.072;11.616;2022-09-09T03:10:31;14.30;99.90
9225;DHT22;4647;48.072;11.616;2022-09-09T03:12:58;14.30;99.90
9225;DHT22;4647;48.072;11.616;2022-09-09T03:15:25;14.30;99.90
9225;DHT22;4647;48.072;11.616;2022-09-09T03:17:54;14.30;99.90
9225;DHT22;4647;48.072;11.616;2022-09-09T03:20:24;14.30;99.90
9225;DHT22;4647;48.072;11.616;2022-09-09T03:22:52;14.30;99.90
9225;DHT22;4647;48.072;11.616;2022-09-09T03:25:19;14.20;99.90
9225;DHT22;4647;48.072;11.616;2022-09-09T03:27:46;14.30;99.90
9225;DHT22;4647;48.072;11.616;2022-09-09T03:30:13;14.30;99.90
9225;DHT22;4647;48.072;11.616;2022-09-09T03:32:41;14.10;99.90
9225;DHT22;4647;48.072;11.616;2022-09-09T03:35:08;14.00;99.90
9225;DHT22;4647;48.072;11.616;2022-09-09T03:37:36;13.80;99.90
9225;DHT22;4647;48.072;11.616;2022-09-09T03:40:05;13.70;99.90
9225;DHT22;4647;48.072;11.616;2022-09-09T03:42:32;13.70;99.90
9225;DHT22;4647;48.072;11.616;2022-09-09T03:44:59;13.60;99.90
9225;DHT22;4647;48.072;11.616;2022-09-09T03:47:26;13.70;99.90
9225;DHT22;4647;48.072;11.616;2022-09-09T03:49:52;13.60;99.90
9225;DHT22;4647;48.072;11.616;2022-09-09T03:52:19;13.60;99.90
9225;DHT22;4647;48.072;11.616;2022-09-09T03:54:48;13.50;99.90
9225;DHT22;4647;48.072;11.616;2022-09-09T03:57:15;13.60;99.90
9225;DHT22;4647;48.072;11.616;2022-09-09T03:59:42;13.60;99.90
9225;DHT22;4647;48.072;11.616;2022-09-09T04:02:09;13.50;99.90
9225;DHT22;4647;48.072;11.616;2022-09-09T04:04:36;13.60;99.90
9225;DHT22;4647;48.072;11.616;2022-09-09T04:07:03;13.60;99.90
9225;DHT22;4647;48.072;11.616;2022-09-09T04:09:32;13.60;99.90
9225;DHT22;4647;48.072;11.616;2022-09-09T04:12:02;13.70;99.90
9225;DHT22;4647;48.072;11.616;2022-09-09T04:14:28;13.60;99.90
9225;DHT22;4647;48.072;11.616;2022-09-09T04:16:55;13.70;99.90
9225;DHT22;4647;48.072;11.616;2022-09-09T04:19:22;13.70;99.90
9225;DHT22;4647;48.072;11.616;2022-09-09T04:21:49;13.80;99.90
9225;DHT22;4647;48.072;11.616;2022-09-09T04:24:16;13.80;99.90
9225;DHT22;4647;48.072;11.616;2022-09-09T04:26:44;13.80;99.90
9225;DHT22;4647;48.072;11.616;2022-09-09T04:29:14;13.80;99.90
9225;DHT22;4647;48.072;11.616;2022-09-09T04:31:41;13.70;99.90
9225;DHT22;4647;48.072;11.616;2022-09-09T04:34:08;13.70;99.90
9225;DHT22;4647;48.072;11.616;2022-09-09T04:36:35;13.70;99.90
9225;DHT22;4647;48.072;11.616;2022-09-09T04:39:04;13.80;99.90
9225;DHT22;4647;48.072;11.616;2022-09-09T04:41:31;13.80;99.90
9225;DHT22;4647;48.072;11.616;2022-09-09T04:43:58;13.70;99.90
9225;DHT22;4647;48.072;11.616;2022-09-09T04:46:27;13.80;99.90
9225;DHT22;4647;48.072;11.616;2022-09-09T04:48:54;13.70;99.90
9225;DHT22;4647;48.072;11.616;2022-09-09T04:51:21;13.60;99.90
9225;DHT22;4647;48.072;11.616;2022-09-09T04:53:48;13.50;99.90
9225;DHT22;4647;48.072;11.616;2022-09-09T04:56:17;13.50;99.90
9225;DHT22;4647;48.072;11.616;2022-09-09T04:58:44;13.60;99.90
9225;DHT22;4647;48.072;11.616;2022-09-09T05:01:12;13.70;99.90
9225;DHT22;4647;48.072;11.616;2022-09-09T05:03:41;13.80;99.90
9225;DHT22;4647;48.072;11.616;2022-09-09T05:06:10;13.90;99.90
9225;DHT22;4647;48.072;11.616;2022-09-09T05:08:39;13.90;99.90
9225;DHT22;4647;48.072;11.616;2022-09-09T05:11:13;13.80;99.90
9225;DHT22;4647;48.072;11.616;2022-09-09T05:13:41;13.90;99.90
9225;DHT22;4647;48.072;11.616;2022-09-09T05:16:08;13.90;99.90
9225;DHT22;4647;48.072;11.616;2022-09-09T05:18:36;14.00;99.90
9225;DHT22;4647;48.072;11.616;2022-09-09T05:21:05;13.90;99.90
9225;DHT22;4647;48.072;11.616;2022-09-09T05:23:32;13.90;99.90
9225;DHT22;4647;48.072;11.616;2022-09-09T05:25:59;14.10;99.90
9225;DHT22;4647;48.072;11.616;2022-09-09T05:28:27;14.10;99.90
9225;DHT22;4647;48.072;11.616;2022-09-09T05:30:58;14.30;99.90
9225;DHT22;4647;48.072;11.616;2022-09-09T05:33:26;14.50;99.90
9225;DHT22;4647;48.072;11.616;2022-09-09T05:35:57;14.60;99.90
9225;DHT22;4647;48.072;11.616;2022-09-09T05:38:25;14.60;99.90
9225;DHT22;4647;48.072;11.616;2022-09-09T05:40:52;14.70;99.90
9225;DHT22;4647;48.072;11.616;2022-09-09T05:43:19;14.60;99.90
9225;DHT22;4647;48.072;11.616;2022-09-09T05:45:47;14.60;99.90
9225;DHT22;4647;48.072;11.616;2022-09-09T05:48:14;14.60;99.90
9225;DHT22;4647;48.072;11.616;2022-09-09T05:50:41;14.60;99.90
9225;DHT22;4647;48.072;11.616;2022-09-09T05:53:08;14.70;99.90
9225;DHT22;4647;48.072;11.616;2022-09-09T05:55:37;14.80;99.90
9225;DHT22;4647;48.072;11.616;2022-09-09T05:58:04;14.80;99.90
9225;DHT22;4647;48.072;11.616;2022-09-09T06:00:30;14.80;99.90
9225;DHT22;4647;48.072;11.616;2022-09-09T06:02:58;14.90;99.90
9225;DHT22;4647;48.072;11.616;2022-09-09T06:05:25;15.00;99.90
9225;DHT22;4647;48.072;11.616;2022-09-09T06:07:53;15.20;99.90
9225;DHT22;4647;48.072;11.616;2022-09-09T06:10:21;15.30;99.90
9225;DHT22;4647;48.072;11.616;2022-09-09T06:12:52;15.30;99.90
9225;DHT22;4647;48.072;11.616;2022-09-09T06:15:19;15.30;99.90
9225;DHT22;4647;48.072;11.616;2022-09-09T06:17:46;15.40;99.90
9225;DHT22;4647;48.072;11.616;2022-09-09T06:20:14;15.40;99.90
9225;DHT22;4647;48.072;11.616;2022-09-09T06:22:41;15.40;99.90
9225;DHT22;4647;48.072;11.616;2022-09-09T06:25:08;15.40;99.90
9225;DHT22;4647;48.072;11.616;2022-09-09T06:27:36;15.40;99.90
9225;DHT22;4647;48.072;11.616;2022-09-09T06:30:05;15.50;99.90
9225;DHT22;4647;48.072;11.616;2022-09-09T06:32:33;15.50;99.90
9225;DHT22;4647;48.072;11.616;2022-09-09T06:35:02;15.60;99.90
9225;DHT22;4647;48.072;11.616;2022-09-09T06:37:29;15.60;99.90
9225;DHT22;4647;48.072;11.616;2022-09-09T06:39:56;15.70;99.90
9225;DHT22;4647;48.072;11.616;2022-09-09T06:42:23;15.70;99.90
9225;DHT22;4647;48.072;11.616;2022-09-09T06:44:50;15.80;99.90
9225;DHT22;4647;48.072;11.616;2022-09-09T06:47:19;15.80;99.90
9225;DHT22;4647;48.072;11.616;2022-09-09T06:49:46;15.80;99.90
9225;DHT22;4647;48.072;11.616;2022-09-09T06:52:12;15.90;99.90
9225;DHT22;4647;48.072;11.616;2022-09-09T06:54:39;16.00;99.90
9225;DHT22;4647;48.072;11.616;2022-09-09T06:57:06;16.10;99.90
9225;DHT22;4647;48.072;11.616;2022-09-09T06:59:33;16.10;99.90
9225;DHT22;4647;48.072;11.616;2022-09-09T07:02:00;16.10;99.90
9225;DHT22;4647;48.072;11.616;2022-09-09T07:04:28;16.10;99.90
9225;DHT22;4647;48.072;11.616;2022-09-09T07:06:56;16.20;99.90
9225;DHT22;4647;48.072;11.616;2022-09-09T07:09:24;16.30;99.90
9225;DHT22;4647;48.072;11.616;2022-09-09T07:11:53;16.20;99.90
9225;DHT22;4647;48.072;11.616;2022-09-09T07:14:20;16.40;99.90
9225;DHT22;4647;48.072;11.616;2022-09-09T07:16:47;16.40;99.90
9225;DHT22;4647;48.072;11.616;2022-09-09T07:19:14;16.40;99.90
9225;DHT22;4647;48.072;11.616;2022-09-09T07:21:43;16.30;99.90
9225;DHT22;4647;48.072;11.616;2022-09-09T07:24:10;16.40;99.90
9225;DHT22;4647;48.072;11.616;2022-09-09T07:26:38;16.50;99.90
9225;DHT22;4647;48.072;11.616;2022-09-09T07:29:05;16.50;99.90
9225;DHT22;4647;48.072;11.616;2022-09-09T07:31:34;16.40;99.90
9225;DHT22;4647;48.072;11.616;2022-09-09T07:34:02;16.20;99.90
9225;DHT22;4647;48.072;11.616;2022-09-09T07:36:32;16.10;99.90
9225;DHT22;4647;48.072;11.616;2022-09-09T07:39:02;16.10;99.90
9225;DHT22;4647;48.072;11.616;2022-09-09T07:41:32;16.20;99.90
9225;DHT22;4647;48.072;11.616;2022-09-09T07:44:03;16.20;99.90
9225;DHT22;4647;48.072;11.616;2022-09-09T07:46:30;16.20;99.90
9225;DHT22;4647;48.072;11.616;2022-09-09T07:48:57;16.40;99.90
9225;DHT22;4647;48.072;11.616;2022-09-09T07:51:26;16.50;99.90
9225;DHT22;4647;48.072;11.616;2022-09-09T07:53:54;16.50;99.90
9225;DHT22;4647;48.072;11.616;2022-09-09T07:56:25;16.70;99.90
9225;DHT22;4647;48.072;11.616;2022-09-09T07:58:53;16.80;99.90
9225;DHT22;4647;48.072;11.616;2022-09-09T08:01:22;16.90;99.90
9225;DHT22;4647;48.072;11.616;2022-09-09T08:03:54;16.90;99.90
9225;DHT22;4647;48.072;11.616;2022-09-09T08:06:21;17.00;99.90
9225;DHT22;4647;48.072;11.616;2022-09-09T08:08:50;17.10;99.90
9225;DHT22;4647;48.072;11.616;2022-09-09T08:11:18;17.40;99.90
9225;DHT22;4647;48.072;11.616;2022-09-09T08:13:46;17.60;99.90
9225;DHT22;4647;48.072;11.616;2022-09-09T08:16:15;17.70;99.90
9225;DHT22;4647;48.072;11.616;2022-09-09T08:18:42;17.80;99.90
9225;DHT22;4647;48.072;11.616;2022-09-09T08:21:11;17.70;99.90
9225;DHT22;4647;48.072;11.616;2022-09-09T08:23:39;17.70;99.90
9225;DHT22;4647;48.072;11.616;2022-09-09T08:26:10;18.00;99.90
9225;DHT22;4647;48.072;11.616;2022-09-09T08:28:37;18.10;99.90
9225;DHT22;4647;48.072;11.616;2022-09-09T08:31:08;18.10;99.90
9225;DHT22;4647;48.072;11.616;2022-09-09T08:33:35;18.10;99.90
9225;DHT22;4647;48.072;11.616;2022-09-09T08:36:05;18.20;99.90
9225;DHT22;4647;48.072;11.616;2022-09-09T08:38:32;18.20;99.90
9225;DHT22;4647;48.072;11.616;2022-09-09T08:41:12;18.30;99.90
9225;DHT22;4647;48.072;11.616;2022-09-09T08:43:46;18.20;99.90
9225;DHT22;4647;48.072;11.616;2022-09-09T08:46:20;18.30;99.90
9225;DHT22;4647;48.072;11.616;2022-09-09T08:48:55;18.20;99.90
9225;DHT22;4647;48.072;11.616;2022-09-09T08:51:26;18.10;99.90
9225;DHT22;4647;48.072;11.616;2022-09-09T08:53:55;18.10;99.90
9225;DHT22;4647;48.072;11.616;2022-09-09T08:56:25;18.10;99.90
9225;DHT22;4647;48.072;11.616;2022-09-09T08:58:54;18.00;99.90
9225;DHT22;4647;48.072;11.616;2022-09-09T09:01:38;17.90;99.90
9225;DHT22;4647;48.072;11.616;2022-09-09T09:04:21;17.90;99.90
9225;DHT22;4647;48.072;11.616;2022-09-09T09:07:00;17.70;99.90
9225;DHT22;4647;48.072;11.616;2022-09-09T09:09:35;17.70;99.90
9225;DHT22;4647;48.072;11.616;2022-09-09T09:12:15;17.80;99.90
9225;DHT22;4647;48.072;11.616;2022-09-09T09:14:43;17.90;99.90
9225;DHT22;4647;48.072;11.616;2022-09-09T09:17:14;18.00;99.90
9225;DHT22;4647;48.072;11.616;2022-09-09T09:19:43;18.00;99.90
9225;DHT22;4647;48.072;11.616;2022-09-09T09:22:17;18.20;99.90
9225;DHT22;4647;48.072;11.616;2022-09-09T09:24:51;18.40;99.90
9225;DHT22;4647;48.072;11.616;2022-09-09T09:27:25;18.60;99.90
9225;DHT22;4647;48.072;11.616;2022-09-09T09:29:54;18.80;99.90
9225;DHT22;4647;48.072;11.616;2022-09-09T09:32:26;19.00;99.90
9225;DHT22;4647;48.072;11.616;2022-09-09T09:34:56;19.00;99.90
9225;DHT22;4647;48.072;11.616;2022-09-09T09:37:28;19.00;99.90
9225;DHT22;4647;48.072;11.616;2022-09-09T09:39:56;19.10;99.90
9225;DHT22;4647;48.072;11.616;2022-09-09T09:42:23;19.10;99.90
9225;DHT22;4647;48.072;11.616;2022-09-09T09:44:50;19.10;99.90
9225;DHT22;4647;48.072;11.616;2022-09-09T09:47:19;19.10;99.90
9225;DHT22;4647;48.072;11.616;2022-09-09T09:49:55;19.10;99.90
9225;DHT22;4647;48.072;11.616;2022-09-09T09:52:23;19.00;99.90
9225;DHT22;4647;48.072;11.616;2022-09-09T09:54:51;18.90;99.90
9225;DHT22;4647;48.072;11.616;2022-09-09T09:57:24;18.90;99.90
9225;DHT22;4647;48.072;11.616;2022-09-09T10:00:02;18.90;99.90
9225;DHT22;4647;48.072;11.616;2022-09-09T10:02:37;18.80;99.90
9225;DHT22;4647;48.072;11.616;2022-09-09T10:05:13;18.70;99.90
9225;DHT22;4647;48.072;11.616;2022-09-09T10:07:40;18.50;99.90
9225;DHT22;4647;48.072;11.616;2022-09-09T10:10:13;18.40;99.90
9225;DHT22;4647;48.072;11.616;2022-09-09T10:12:48;18.50;99.90
9225;DHT22;4647;48.072;11.616;2022-09-09T10:15:32;18.70;99.90
9225;DHT22;4647;48.072;11.616;2022-09-09T10:18:13;18.80;99.90
9225;DHT22;4647;48.072;11.616;2022-09-09T10:20:49;18.70;99.90
9225;DHT22;4647;48.072;11.616;2022-09-09T10:23:29;18.50;99.90
9225;DHT22;4647;48.072;11.616;2022-09-09T10:26:11;18.10;99.90
9225;DHT22;4647;48.072;11.616;2022-09-09T10:29:07;17.90;99.90
9225;DHT22;4647;48.072;11.616;2022-09-09T10:31:44;17.90;99.90
9225;DHT22;4647;48.072;11.616;2022-09-09T10:34:23;17.90;99.90
9225;DHT22;4647;48.072;11.616;2022-09-09T10:36:58;18.00;99.90
9225;DHT22;4647;48.072;11.616;2022-09-09T10:39:35;18.20;99.90
9225;DHT22;4647;48.072;11.616;2022-09-09T10:42:05;18.30;99.90
9225;DHT22;4647;48.072;11.616;2022-09-09T10:47:44;18.40;99.90
9225;DHT22;4647;48.072;11.616;2022-09-09T10:50:37;18.70;99.90
9225;DHT22;4647;48.072;11.616;2022-09-09T10:53:16;18.70;99.90
9225;DHT22;4647;48.072;11.616;2022-09-09T10:55:50;19.10;99.90
9225;DHT22;4647;48.072;11.616;2022-09-09T10:58:21;19.40;99.90
9225;DHT22;4647;48.072;11.616;2022-09-09T11:00:52;19.60;99.90
9225;DHT22;4647;48.072;11.616;2022-09-09T11:03:23;19.50;99.90
9225;DHT22;4647;48.072;11.616;2022-09-09T11:05:55;19.50;99.90
9225;DHT22;4647;48.072;11.616;2022-09-09T11:08:27;19.40;99.90
9225;DHT22;4647;48.072;11.616;2022-09-09T11:11:00;19.30;99.90
9225;DHT22;4647;48.072;11.616;2022-09-09T11:13:34;19.20;99.90
9225;DHT22;4647;48.072;11.616;2022-09-09T11:16:16;19.20;99.90
9225;DHT22;4647;48.072;11.616;2022-09-09T11:18:46;19.30;99.90
9225;DHT22;4647;48.072;11.616;2022-09-09T11:21:19;19.60;99.90
9225;DHT22;4647;48.072;11.616;2022-09-09T11:23:52;19.70;99.90
9225;DHT22;4647;48.072;11.616;2022-09-09T11:26:29;19.80;99.90
9225;DHT22;4647;48.072;11.616;2022-09-09T11:29:19;19.90;99.90
9225;DHT22;4647;48.072;11.616;2022-09-09T11:32:04;20.10;99.90
9225;DHT22;4647;48.072;11.616;2022-09-09T11:34:39;20.10;99.90
9225;DHT22;4647;48.072;11.616;2022-09-09T11:37:43;20.00;99.90
9225;DHT22;4647;48.072;11.616;2022-09-09T11:40:20;20.40;99.90
9225;DHT22;4647;48.072;11.616;2022-09-09T11:42:49;20.70;99.90
9225;DHT22;4647;48.072;11.616;2022-09-09T11:45:28;21.00;99.90
9225;DHT22;4647;48.072;11.616;2022-09-09T11:47:57;21.20;99.90
9225;DHT22;4647;48.072;11.616;2022-09-09T11:50:38;21.20;99.90
9225;DHT22;4647;48.072;11.616;2022-09-09T11:53:19;21.30;99.90
9225;DHT22;4647;48.072;11.616;2022-09-09T11:56:22;21.20;99.90
9225;DHT22;4647;48.072;11.616;2022-09-09T11:58:55;20.80;99.90
9225;DHT22;4647;48.072;11.616;2022-09-09T12:01:37;20.70;99.90
9225;DHT22;4647;48.072;11.616;2022-09-09T12:04:29;21.10;99.90
9225;DHT22;4647;48.072;11.616;2022-09-09T12:06:59;21.30;99.90
9225;DHT22;4647;48.072;11.616;2022-09-09T12:12:27;21.60;99.90
9225;DHT22;4647;48.072;11.616;2022-09-09T12:15:00;21.50;99.90
9225;DHT22;4647;48.072;11.616;2022-09-09T12:17:29;21.60;99.90
9225;DHT22;4647;48.072;11.616;2022-09-09T12:20:01;21.90;99.90
9225;DHT22;4647;48.072;11.616;2022-09-09T12:22:35;21.80;99.90
9225;DHT22;4647;48.072;11.616;2022-09-09T12:25:14;21.50;99.90
9225;DHT22;4647;48.072;11.616;2022-09-09T12:27:48;21.40;99.90
9225;DHT22;4647;48.072;11.616;2022-09-09T12:30:18;21.70;99.90
9225;DHT22;4647;48.072;11.616;2022-09-09T12:32:47;21.90;99.90
9225;DHT22;4647;48.072;11.616;2022-09-09T12:35:21;21.90;99.90
9225;DHT22;4647;48.072;11.616;2022-09-09T12:37:51;21.90;99.90
9225;DHT22;4647;48.072;11.616;2022-09-09T12:40:21;22.00;99.90
9225;DHT22;4647;48.072;11.616;2022-09-09T12:42:51;22.20;99.90
9225;DHT22;4647;48.072;11.616;2022-09-09T12:45:19;22.20;99.90
9225;DHT22;4647;48.072;11.616;2022-09-09T12:47:50;21.90;99.90
9225;DHT22;4647;48.072;11.616;2022-09-09T12:50:22;21.50;99.90
9225;DHT22;4647;48.072;11.616;2022-09-09T12:52:52;21.30;99.90
9225;DHT22;4647;48.072;11.616;2022-09-09T12:55:23;21.60;99.90
9225;DHT22;4647;48.072;11.616;2022-09-09T12:57:52;21.60;99.90
9225;DHT22;4647;48.072;11.616;2022-09-09T13:00:21;21.50;99.90
9225;DHT22;4647;48.072;11.616;2022-09-09T13:02:51;21.40;99.90
9225;DHT22;4647;48.072;11.616;2022-09-09T13:05:21;21.40;99.90
9225;DHT22;4647;48.072;11.616;2022-09-09T13:07:48;21.10;99.90
9225;DHT22;4647;48.072;11.616;2022-09-09T13:10:23;21.00;99.90
9225;DHT22;4647;48.072;11.616;2022-09-09T13:12:53;20.90;99.90
9225;DHT22;4647;48.072;11.616;2022-09-09T13:15:23;20.90;99.90
9225;DHT22;4647;48.072;11.616;2022-09-09T13:17:54;20.90;99.90
9225;DHT22;4647;48.072;11.616;2022-09-09T13:20:22;21.00;99.90
9225;DHT22;4647;48.072;11.616;2022-09-09T13:22:51;21.00;99.90
9225;DHT22;4647;48.072;11.616;2022-09-09T13:25:22;20.90;99.90
9225;DHT22;4647;48.072;11.616;2022-09-09T13:28:02;20.50;99.90
9225;DHT22;4647;48.072;11.616;2022-09-09T13:30:31;20.70;99.90
9225;DHT22;4647;48.072;11.616;2022-09-09T13:33:21;20.80;99.90
9225;DHT22;4647;48.072;11.616;2022-09-09T13:35:51;21.00;99.90
9225;DHT22;4647;48.072;11.616;2022-09-09T13:38:19;20.80;99.90
9225;DHT22;4647;48.072;11.616;2022-09-09T13:40:55;20.80;99.90
9225;DHT22;4647;48.072;11.616;2022-09-09T13:43:25;20.30;99.90
9225;DHT22;4647;48.072;11.616;2022-09-09T13:45:56;19.90;99.90
9225;DHT22;4647;48.072;11.616;2022-09-09T13:48:25;19.90;99.90
9225;DHT22;4647;48.072;11.616;2022-09-09T13:51:22;19.80;99.90
9225;DHT22;4647;48.072;11.616;2022-09-09T13:53:52;19.80;99.90
9225;DHT22;4647;48.072;11.616;2022-09-09T13:56:20;19.90;99.90
9225;DHT22;4647;48.072;11.616;2022-09-09T13:58:48;19.70;99.90
9225;DHT22;4647;48.072;11.616;2022-09-09T14:01:15;19.60;99.90
9225;DHT22;4647;48.072;11.616;2022-09-09T14:03:42;19.30;99.90
9225;DHT22;4647;48.072;11.616;2022-09-09T14:06:09;19.10;99.90
9225;DHT22;4647;48.072;11.616;2022-09-09T14:08:36;19.00;99.90
9225;DHT22;4647;48.072;11.616;2022-09-09T14:11:04;19.00;99.90
9225;DHT22;4647;48.072;11.616;2022-09-09T14:13:31;19.00;99.90
9225;DHT22;4647;48.072;11.616;2022-09-09T14:15:59;19.20;99.90
9225;DHT22;4647;48.072;11.616;2022-09-09T14:18:26;19.20;99.90
9225;DHT22;4647;48.072;11.616;2022-09-09T14:20:53;19.30;99.90
9225;DHT22;4647;48.072;11.616;2022-09-09T14:23:20;19.30;99.90
9225;DHT22;4647;48.072;11.616;2022-09-09T14:25:47;19.20;99.90
9225;DHT22;4647;48.072;11.616;2022-09-09T14:28:15;19.20;99.90
9225;DHT22;4647;48.072;11.616;2022-09-09T14:30:42;19.40;99.90
9225;DHT22;4647;48.072;11.616;2022-09-09T14:33:13;19.40;99.90
9225;DHT22;4647;48.072;11.616;2022-09-09T14:35:41;19.40;99.90
9225;DHT22;4647;48.072;11.616;2022-09-09T14:38:08;19.50;99.90
9225;DHT22;4647;48.072;11.616;2022-09-09T14:40:36;19.40;99.90
9225;DHT22;4647;48.072;11.616;2022-09-09T14:43:04;19.30;99.90
9225;DHT22;4647;48.072;11.616;2022-09-09T14:45:31;19.30;99.90
9225;DHT22;4647;48.072;11.616;2022-09-09T14:47:58;19.30;99.90
9225;DHT22;4647;48.072;11.616;2022-09-09T14:50:26;19.40;99.90
9225;DHT22;4647;48.072;11.616;2022-09-09T14:52:54;19.40;99.90
9225;DHT22;4647;48.072;11.616;2022-09-09T14:55:21;19.40;99.90
9225;DHT22;4647;48.072;11.616;2022-09-09T14:57:47;19.50;99.90
9225;DHT22;4647;48.072;11.616;2022-09-09T15:00:14;19.50;99.90
9225;DHT22;4647;48.072;11.616;2022-09-09T15:02:41;19.60;99.90
9225;DHT22;4647;48.072;11.616;2022-09-09T15:05:08;19.60;99.90
9225;DHT22;4647;48.072;11.616;2022-09-09T15:07:37;19.30;99.90
9225;DHT22;4647;48.072;11.616;2022-09-09T15:10:05;19.40;99.90
9225;DHT22;4647;48.072;11.616;2022-09-09T15:12:32;19.40;99.90
9225;DHT22;4647;48.072;11.616;2022-09-09T15:15:01;19.40;99.90
9225;DHT22;4647;48.072;11.616;2022-09-09T15:17:28;19.40;99.90
9225;DHT22;4647;48.072;11.616;2022-09-09T15:19:54;19.40;99.90
9225;DHT22;4647;48.072;11.616;2022-09-09T15:22:21;19.30;99.90
9225;DHT22;4647;48.072;11.616;2022-09-09T15:24:51;19.20;99.90
9225;DHT22;4647;48.072;11.616;2022-09-09T15:27:17;19.00;99.90
9225;DHT22;4647;48.072;11.616;2022-09-09T15:29:44;19.00;99.90
9225;DHT22;4647;48.072;11.616;2022-09-09T15:32:12;18.90;99.90
9225;DHT22;4647;48.072;11.616;2022-09-09T15:34:39;18.80;99.90
9225;DHT22;4647;48.072;11.616;2022-09-09T15:37:06;18.70;99.90
9225;DHT22;4647;48.072;11.616;2022-09-09T15:39:36;18.70;99.90
9225;DHT22;4647;48.072;11.616;2022-09-09T15:42:04;18.70;99.90
9225;DHT22;4647;48.072;11.616;2022-09-09T15:44:38;18.60;99.90
9225;DHT22;4647;48.072;11.616;2022-09-09T15:47:05;18.60;99.90
9225;DHT22;4647;48.072;11.616;2022-09-09T15:49:32;18.60;99.90
9225;DHT22;4647;48.072;11.616;2022-09-09T15:51:59;18.70;99.90
9225;DHT22;4647;48.072;11.616;2022-09-09T15:54:31;18.70;99.90
9225;DHT22;4647;48.072;11.616;2022-09-09T15:57:00;18.90;99.90
9225;DHT22;4647;48.072;11.616;2022-09-09T15:59:29;19.20;99.90
9225;DHT22;4647;48.072;11.616;2022-09-09T16:01:57;19.20;99.90
9225;DHT22;4647;48.072;11.616;2022-09-09T16:04:25;19.20;99.90
9225;DHT22;4647;48.072;11.616;2022-09-09T16:06:56;19.30;99.90
9225;DHT22;4647;48.072;11.616;2022-09-09T16:09:24;19.30;99.90
9225;DHT22;4647;48.072;11.616;2022-09-09T16:11:51;19.20;99.90
9225;DHT22;4647;48.072;11.616;2022-09-09T16:14:18;19.00;99.90